createdAt,value
2022-11-24T00:01:12.338Z,6.04
2022-11-24T00:03:40.237Z,6.03
2022-11-24T00:06:10.823Z,6.05
2022-11-24T00:08:40.021Z,6.08
2022-11-24T00:11:11.096Z,6.06
2022-11-24T00:13:40.070Z,6.11
2022-11-24T00:16:10.495Z,6.11
2022-11-24T00:18:38.703Z,6.13
2022-11-24T00:21:06.881Z,6.17
2022-11-24T00:23:35.444Z,6.10
2022-11-24T00:26:10.042Z,6.10
2022-11-24T00:28:38.618Z,6.08
2022-11-24T00:31:17.455Z,6.06
2022-11-24T00:33:47.563Z,6.09
2022-11-24T00:36:16.201Z,6.11
2022-11-24T00:38:44.332Z,6.12
2022-11-24T00:41:14.231Z,6.18
2022-11-24T00:43:41.913Z,6.19
2022-11-24T00:46:09.887Z,6.16
2022-11-24T00:48:37.738Z,6.20
2022-11-24T00:51:07.773Z,6.11
2022-11-24T00:53:35.849Z,6.11
2022-11-24T00:56:04.558Z,6.03
2022-11-24T00:58:34.504Z,6.02
2022-11-24T01:01:04.608Z,5.97
2022-11-24T01:03:33.378Z,5.93
2022-11-24T01:06:05.118Z,5.92
2022-11-24T01:08:32.877Z,5.95
2022-11-24T01:11:12.159Z,5.92
2022-11-24T01:13:42.117Z,5.94
2022-11-24T01:16:16.003Z,5.95
2022-11-24T01:18:43.896Z,6.00
2022-11-24T01:21:11.990Z,5.99
2022-11-24T01:23:39.834Z,5.96
2022-11-24T01:26:08.781Z,6.01
2022-11-24T01:28:37.688Z,5.98
2022-11-24T01:31:09.251Z,6.02
2022-11-24T01:33:38.111Z,5.99
2022-11-24T01:36:07.188Z,6.01
2022-11-24T01:38:35.260Z,6.04
2022-11-24T01:41:04.870Z,6.04
2022-11-24T01:43:33.031Z,6.04
2022-11-24T01:46:07.634Z,6.04
2022-11-24T01:48:42.430Z,6.09
2022-11-24T01:51:14.737Z,6.06
2022-11-24T01:53:45.094Z,6.07
2022-11-24T01:56:14.550Z,6.05
2022-11-24T01:58:45.431Z,6.08
2022-11-24T02:01:13.974Z,6.02
2022-11-24T02:03:46.658Z,6.03
2022-11-24T02:06:17.894Z,6.01
2022-11-24T02:08:50.102Z,5.99
2022-11-24T02:11:18.078Z,5.96
2022-11-24T02:13:47.375Z,5.98
2022-11-24T02:16:15.158Z,5.87
2022-11-24T02:18:45.300Z,5.90
2022-11-24T02:21:15.665Z,5.90
2022-11-24T02:23:50.441Z,5.85
2022-11-24T02:26:29.120Z,5.79
2022-11-24T02:28:57.271Z,5.80
2022-11-24T02:31:25.239Z,5.86
2022-11-24T02:33:53.178Z,5.80
2022-11-24T02:36:20.930Z,5.77
2022-11-24T02:38:48.914Z,5.77
2022-11-24T02:41:20.967Z,5.77
2022-11-24T02:43:52.367Z,5.81
2022-11-24T02:46:20.120Z,5.83
2022-11-24T02:48:48.015Z,5.79
2022-11-24T02:51:15.764Z,5.81
2022-11-24T02:53:45.606Z,5.84
2022-11-24T02:56:13.324Z,5.81
2022-11-24T02:58:41.115Z,5.85
2022-11-24T03:01:10.279Z,5.83
2022-11-24T03:03:38.464Z,5.86
2022-11-24T03:06:06.428Z,5.83
2022-11-24T03:08:34.183Z,5.85
2022-11-24T03:11:02.750Z,5.80
2022-11-24T03:13:30.503Z,5.83
2022-11-24T03:15:58.241Z,5.87
2022-11-24T03:18:27.415Z,5.91
2022-11-24T03:21:00.524Z,5.88
2022-11-24T03:23:28.281Z,5.87
2022-11-24T03:25:55.992Z,5.85
2022-11-24T03:28:23.690Z,5.84
2022-11-24T03:30:52.097Z,5.87
2022-11-24T03:33:19.869Z,5.88
2022-11-24T03:35:48.942Z,5.86
2022-11-24T03:38:16.680Z,5.88
2022-11-24T03:40:44.375Z,5.96
2022-11-24T03:43:12.085Z,5.95
2022-11-24T03:45:47.285Z,5.92
2022-11-24T03:48:15.742Z,5.96
2022-11-24T03:50:43.494Z,5.93
2022-11-24T03:53:12.563Z,5.96
2022-11-24T03:55:40.547Z,5.97
2022-11-24T03:58:08.311Z,6.00
2022-11-24T04:00:36.061Z,5.99
2022-11-24T04:03:03.805Z,5.97
2022-11-24T04:05:33.116Z,6.03
2022-11-24T04:08:02.930Z,6.04
2022-11-24T04:10:35.594Z,6.01
2022-11-24T04:13:02.491Z,5.99
2022-11-24T04:15:30.406Z,6.02
2022-11-24T04:17:59.024Z,6.03
2022-11-24T04:20:27.033Z,6.02
2022-11-24T04:22:55.299Z,6.01
2022-11-24T04:25:23.234Z,6.01
2022-11-24T04:27:54.418Z,6.02
2022-11-24T04:30:23.298Z,5.98
2022-11-24T04:32:51.361Z,5.93
2022-11-24T04:35:19.639Z,5.94
2022-11-24T04:37:47.447Z,5.94
2022-11-24T04:40:15.718Z,5.93
2022-11-24T04:42:43.563Z,5.91
2022-11-24T04:45:13.241Z,5.95
2022-11-24T04:47:41.015Z,5.90
2022-11-24T04:50:10.238Z,5.91
2022-11-24T04:52:37.958Z,5.87
2022-11-24T04:55:06.222Z,5.84
2022-11-24T04:57:33.957Z,5.81
2022-11-24T05:00:01.703Z,5.78
2022-11-24T05:02:30.826Z,5.77
2022-11-24T05:04:58.595Z,5.74
2022-11-24T05:07:26.408Z,5.76
2022-11-24T05:10:11.508Z,5.81
2022-11-24T05:12:39.485Z,5.83
2022-11-24T05:15:08.817Z,5.85
2022-11-24T05:17:40.082Z,5.85
2022-11-24T05:20:09.080Z,5.84
2022-11-24T05:22:36.849Z,5.88
2022-11-24T05:25:04.753Z,5.84
2022-11-24T05:27:32.553Z,5.89
2022-11-24T05:30:00.280Z,5.91
2022-11-24T05:32:28.108Z,5.94
2022-11-24T05:34:58.198Z,5.92
2022-11-24T05:37:26.741Z,5.93
2022-11-24T05:39:54.744Z,5.95
2022-11-24T05:42:43.531Z,5.95
2022-11-24T05:45:16.868Z,5.95
2022-11-24T05:47:44.610Z,5.99
2022-11-24T05:50:15.844Z,6.02
2022-11-24T05:52:43.907Z,6.04
2022-11-24T05:55:13.248Z,6.06
2022-11-24T05:57:41.180Z,6.05
2022-11-24T06:00:10.613Z,6.11
2022-11-24T06:02:41.320Z,6.04
2022-11-24T06:05:09.446Z,6.04
2022-11-24T06:07:38.665Z,6.01
2022-11-24T06:10:06.781Z,5.98
2022-11-24T06:12:34.554Z,5.97
2022-11-24T06:15:02.456Z,5.93
2022-11-24T06:17:30.274Z,5.91
2022-11-24T06:19:58.180Z,5.87
2022-11-24T06:22:25.961Z,5.93
2022-11-24T06:24:55.351Z,5.85
2022-11-24T06:27:23.162Z,5.83
2022-11-24T06:29:50.887Z,5.82
2022-11-24T06:32:18.653Z,5.84
2022-11-24T06:34:46.590Z,5.84
2022-11-24T06:37:14.399Z,5.78
2022-11-24T06:39:42.532Z,5.75
2022-11-24T06:42:11.705Z,5.72
2022-11-24T06:44:39.421Z,5.72
2022-11-24T06:47:07.186Z,5.67
2022-11-24T06:49:34.915Z,5.65
2022-11-24T06:52:02.678Z,5.62
2022-11-24T06:54:30.411Z,5.59
2022-11-24T06:56:58.896Z,5.62
2022-11-24T06:59:28.241Z,5.63
2022-11-24T07:01:55.950Z,5.68
2022-11-24T07:04:23.807Z,5.75
2022-11-24T07:06:51.607Z,5.76
2022-11-24T07:09:19.353Z,5.67
2022-11-24T07:11:47.123Z,5.64
2022-11-24T07:14:14.906Z,5.68
2022-11-24T07:16:44.346Z,5.72
2022-11-24T07:19:12.153Z,5.75
2022-11-24T07:21:39.874Z,5.77
2022-11-24T07:24:08.604Z,5.81
2022-11-24T07:26:37.414Z,5.86
2022-11-24T07:29:06.025Z,5.94
2022-11-24T07:31:33.887Z,5.99
2022-11-24T07:34:03.069Z,6.00
2022-11-24T07:36:30.831Z,6.02
2022-11-24T07:38:58.713Z,6.09
2022-11-24T07:41:26.635Z,6.16
2022-11-24T07:43:54.378Z,6.19
2022-11-24T07:46:22.158Z,6.23
2022-11-24T07:48:49.994Z,6.29
2022-11-24T07:51:19.133Z,6.39
2022-11-24T07:53:47.277Z,6.44
2022-11-24T07:56:18.339Z,6.53
2022-11-24T07:58:52.514Z,6.61
2022-11-24T08:01:21.193Z,6.68
2022-11-24T08:03:49.013Z,6.75
2022-11-24T08:06:28.588Z,6.86
2022-11-24T08:09:00.124Z,7.02
2022-11-24T08:11:28.403Z,7.11
2022-11-24T08:13:56.125Z,7.14
2022-11-24T08:16:24.137Z,7.20
2022-11-24T08:18:53.129Z,7.25
2022-11-24T08:21:23.092Z,7.32
2022-11-24T08:23:50.924Z,7.36
2022-11-24T08:26:20.035Z,7.35
2022-11-24T08:28:48.927Z,7.42
2022-11-24T08:31:19.500Z,7.40
2022-11-24T08:33:47.957Z,7.47
2022-11-24T08:36:18.508Z,7.51
2022-11-24T08:38:47.058Z,7.57
2022-11-24T08:41:16.855Z,7.57
2022-11-24T08:43:46.020Z,7.73
2022-11-24T08:46:17.058Z,7.75
2022-11-24T08:48:45.545Z,7.87
2022-11-24T08:51:16.263Z,8.00
2022-11-24T08:53:44.526Z,8.13
2022-11-24T08:56:13.947Z,8.21
2022-11-24T08:58:42.595Z,8.31
2022-11-24T09:01:13.819Z,8.39
2022-11-24T09:03:46.594Z,8.37
2022-11-24T09:06:19.203Z,8.35
2022-11-24T09:08:47.079Z,8.35
2022-11-24T09:11:17.158Z,8.29
2022-11-24T09:13:45.638Z,8.24
2022-11-24T09:16:16.894Z,8.28
2022-11-24T09:18:45.147Z,8.23
2022-11-24T09:21:14.875Z,8.14
2022-11-24T09:23:43.541Z,8.11
2022-11-24T09:26:13.445Z,8.07
2022-11-24T09:28:41.219Z,8.01
2022-11-24T09:31:11.334Z,8.04
2022-11-24T09:33:41.567Z,7.99
2022-11-24T09:36:10.279Z,7.95
2022-11-24T09:38:38.125Z,7.85
2022-11-24T09:41:34.087Z,7.76
2022-11-24T09:44:08.663Z,7.71
2022-11-24T09:46:45.283Z,7.64
2022-11-24T09:49:19.947Z,7.60
2022-11-24T09:51:52.872Z,7.61
2022-11-24T09:54:24.280Z,7.55
2022-11-24T09:56:53.378Z,7.54
2022-11-24T09:59:22.486Z,7.47
2022-11-24T10:01:51.974Z,7.40
2022-11-24T10:04:23.738Z,7.40
2022-11-24T10:06:59.827Z,7.45
2022-11-24T10:09:47.065Z,7.45
2022-11-24T10:12:24.649Z,7.42
2022-11-24T10:15:12.298Z,7.42
2022-11-24T10:17:55.665Z,7.30
2022-11-24T10:20:35.839Z,7.29
2022-11-24T10:23:27.942Z,7.26
2022-11-24T10:25:58.961Z,7.27
2022-11-24T10:28:32.911Z,7.33
2022-11-24T10:31:19.000Z,7.34
2022-11-24T10:33:47.507Z,7.34
2022-11-24T10:36:22.938Z,7.46
2022-11-24T10:39:07.023Z,7.46
2022-11-24T10:41:45.024Z,7.55
2022-11-24T10:44:14.866Z,7.67
2022-11-24T10:46:43.010Z,7.67
2022-11-24T10:49:19.852Z,7.75
2022-11-24T10:52:13.640Z,7.75
2022-11-24T10:54:56.029Z,7.74
2022-11-24T10:57:32.921Z,7.67
2022-11-24T11:00:01.037Z,7.78
2022-11-24T11:02:32.663Z,7.85
2022-11-24T11:05:20.578Z,7.91
2022-11-24T11:07:49.863Z,7.81
2022-11-24T11:10:21.437Z,7.88
2022-11-24T11:12:49.389Z,7.92
2022-11-24T11:15:25.979Z,7.98
2022-11-24T11:17:58.598Z,7.97
2022-11-24T11:20:30.636Z,7.87
2022-11-24T11:23:02.620Z,7.91
2022-11-24T11:25:33.740Z,7.97
2022-11-24T11:28:24.244Z,8.06
2022-11-24T11:31:21.064Z,8.10
2022-11-24T11:34:03.702Z,8.15
2022-11-24T11:36:34.073Z,8.17
2022-11-24T11:39:06.293Z,8.24
2022-11-24T11:41:37.363Z,8.28
2022-11-24T11:44:16.693Z,8.38
2022-11-24T11:46:46.059Z,8.47
2022-11-24T11:49:14.729Z,8.41
2022-11-24T11:51:57.345Z,8.54
2022-11-24T11:54:45.667Z,8.58
2022-11-24T11:57:25.734Z,8.40
2022-11-24T12:00:04.727Z,8.40
2022-11-24T12:02:55.739Z,8.44
2022-11-24T12:05:31.629Z,8.49
2022-11-24T12:08:17.574Z,8.53
2022-11-24T12:10:54.703Z,8.49
2022-11-24T12:13:45.387Z,8.51
2022-11-24T12:16:29.741Z,8.33
2022-11-24T12:19:08.055Z,8.34
2022-11-24T12:21:45.002Z,8.30
2022-11-24T12:24:18.957Z,8.26
2022-11-24T12:26:52.333Z,8.36
2022-11-24T12:29:50.367Z,8.47
2022-11-24T12:32:35.758Z,8.51
2022-11-24T12:35:16.935Z,8.55
2022-11-24T12:37:57.337Z,8.39
2022-11-24T12:40:39.753Z,8.45
2022-11-24T12:43:20.268Z,8.42
2022-11-24T12:45:55.263Z,8.38
2022-11-24T12:48:34.794Z,8.35
2022-11-24T12:51:05.630Z,8.31
2022-11-24T12:53:35.558Z,8.30
2022-11-24T12:56:08.434Z,8.20
2022-11-24T12:58:45.664Z,8.21
2022-11-24T13:01:23.394Z,8.25
2022-11-24T13:04:05.414Z,8.30
2022-11-24T13:06:47.407Z,8.40
2022-11-24T13:09:18.346Z,8.41
2022-11-24T13:11:47.655Z,8.42
2022-11-24T13:14:21.585Z,8.39
2022-11-24T13:19:44.670Z,8.42
2022-11-24T13:22:18.220Z,8.41
2022-11-24T13:24:46.112Z,8.42
2022-11-24T13:27:28.526Z,8.41
2022-11-24T13:29:57.686Z,8.36
2022-11-24T13:33:21.645Z,8.29
2022-11-24T13:36:30.568Z,8.18
2022-11-24T13:38:59.071Z,8.00
2022-11-24T13:42:03.525Z,7.90
2022-11-24T13:44:54.671Z,7.84
2022-11-24T13:47:47.901Z,7.80
2022-11-24T13:50:24.306Z,7.72
2022-11-24T13:53:01.522Z,7.67
2022-11-24T13:55:33.716Z,7.63
2022-11-24T13:58:23.785Z,7.59
2022-11-24T14:01:14.288Z,7.61
2022-11-24T14:04:27.970Z,7.63
2022-11-24T14:06:43.085Z,7.63
2022-11-24T14:09:22.421Z,7.63
2022-11-24T14:11:59.322Z,7.59
2022-11-24T14:14:28.561Z,7.63
2022-11-24T14:17:16.581Z,7.62
2022-11-24T14:19:48.263Z,7.65
2022-11-24T14:22:21.813Z,7.67
2022-11-24T14:24:55.274Z,7.67
2022-11-24T14:27:30.798Z,7.71
2022-11-24T14:30:00.459Z,7.75
2022-11-24T14:32:28.862Z,7.74
2022-11-24T14:34:58.119Z,7.73
2022-11-24T14:37:25.971Z,7.70
2022-11-24T14:39:53.715Z,7.65
2022-11-24T14:42:24.439Z,7.64
2022-11-24T14:44:56.419Z,7.64
2022-11-24T14:47:31.262Z,7.63
2022-11-24T14:50:11.984Z,7.63
2022-11-24T14:52:46.249Z,7.63
2022-11-24T14:55:26.924Z,7.61
2022-11-24T14:57:55.036Z,7.59
2022-11-24T15:00:30.537Z,7.58
2022-11-24T15:03:15.859Z,7.56
2022-11-24T15:05:57.123Z,7.53
2022-11-24T15:08:27.428Z,7.52
2022-11-24T15:11:03.380Z,7.50
2022-11-24T15:13:37.066Z,7.47
2022-11-24T15:16:07.722Z,7.45
2022-11-24T15:18:42.152Z,7.42
2022-11-24T15:21:18.607Z,7.41
2022-11-24T15:24:07.011Z,7.37
2022-11-24T15:26:41.396Z,7.35
2022-11-24T15:29:10.269Z,7.31
2022-11-24T15:31:38.716Z,7.29
2022-11-24T15:34:07.310Z,7.26
2022-11-24T15:36:36.682Z,7.23
2022-11-24T15:39:04.427Z,7.20
2022-11-24T15:41:33.798Z,7.16
2022-11-24T15:44:01.726Z,7.12
2022-11-24T15:46:30.897Z,7.08
2022-11-24T15:48:58.678Z,7.05
2022-11-24T15:51:27.769Z,7.02
2022-11-24T15:54:01.078Z,6.98
2022-11-24T15:56:32.679Z,6.96
2022-11-24T15:59:00.778Z,6.93
2022-11-24T16:01:32.065Z,6.93
2022-11-24T16:04:00.310Z,6.85
2022-11-24T16:06:28.116Z,6.84
2022-11-24T16:08:58.050Z,6.79
2022-11-24T16:11:25.844Z,6.75
2022-11-24T16:13:54.684Z,6.70
2022-11-24T16:16:24.691Z,6.63
2022-11-24T16:18:52.723Z,6.60
2022-11-24T16:21:20.568Z,6.55
2022-11-24T16:23:48.687Z,6.48
2022-11-24T16:26:17.873Z,6.42
2022-11-24T16:28:45.777Z,6.38
2022-11-24T16:31:15.807Z,6.34
2022-11-24T16:33:44.701Z,6.28
2022-11-24T16:36:12.679Z,6.22
2022-11-24T16:38:40.504Z,6.13
2022-11-24T16:41:10.170Z,6.06
2022-11-24T16:43:39.439Z,6.00
2022-11-24T16:46:19.313Z,5.92
2022-11-24T16:48:48.660Z,5.84
2022-11-24T16:51:19.341Z,5.77
2022-11-24T16:53:47.801Z,5.73
2022-11-24T16:56:16.464Z,5.70
2022-11-24T16:58:45.605Z,5.61
2022-11-24T17:01:14.821Z,5.60
2022-11-24T17:03:43.067Z,5.53
2022-11-24T17:06:12.920Z,5.48
2022-11-24T17:08:41.610Z,5.52
2022-11-24T17:11:10.475Z,5.37
2022-11-24T17:13:38.844Z,5.25
2022-11-24T17:16:10.050Z,5.20
2022-11-24T17:18:38.467Z,5.12
2022-11-24T17:21:09.729Z,5.07
2022-11-24T17:23:38.388Z,5.08
2022-11-24T17:26:08.308Z,5.06
2022-11-24T17:28:36.786Z,5.05
2022-11-24T17:31:09.587Z,4.98
2022-11-24T17:33:37.430Z,4.89
2022-11-24T17:36:06.402Z,4.78
2022-11-24T17:38:35.089Z,4.85
2022-11-24T17:41:02.879Z,4.82
2022-11-24T17:43:30.650Z,4.82
2022-11-24T17:46:00.838Z,4.80
2022-11-24T17:48:30.939Z,4.78
2022-11-24T17:51:03.216Z,4.76
2022-11-24T17:53:31.705Z,4.73
2022-11-24T17:56:00.794Z,4.72
2022-11-24T17:58:29.023Z,4.72
2022-11-24T18:00:57.460Z,4.76
2022-11-24T18:03:25.537Z,4.89
2022-11-24T18:05:54.930Z,4.95
2022-11-24T18:08:23.931Z,5.01
2022-11-24T18:10:51.752Z,5.05
2022-11-24T18:13:48.424Z,5.06
2022-11-24T18:16:09.443Z,5.06
2022-11-24T18:18:40.224Z,5.05
2022-11-24T18:21:14.238Z,5.06
2022-11-24T18:23:43.746Z,5.02
2022-11-24T18:26:14.731Z,4.96
2022-11-24T18:28:43.455Z,4.95
2022-11-24T18:31:13.036Z,4.91
2022-11-24T18:33:42.811Z,4.93
2022-11-24T18:36:15.138Z,4.90
2022-11-24T18:38:42.906Z,4.87
2022-11-24T18:41:13.217Z,4.85
2022-11-24T18:43:41.239Z,4.81
2022-11-24T18:46:11.767Z,4.77
2022-11-24T18:48:39.567Z,4.72
2022-11-24T18:51:08.552Z,4.69
2022-11-24T18:53:37.703Z,4.63
2022-11-24T18:56:07.566Z,4.55
2022-11-24T18:58:36.492Z,4.48
2022-11-24T19:01:10.089Z,4.39
2022-11-24T19:03:47.869Z,4.31
2022-11-24T19:06:17.526Z,4.23
2022-11-24T19:08:47.118Z,4.19
2022-11-24T19:11:19.973Z,4.13
2022-11-24T19:13:49.088Z,4.03
2022-11-24T19:16:17.744Z,3.99
2022-11-24T19:18:50.441Z,3.90
2022-11-24T19:21:21.783Z,3.90
2022-11-24T19:23:51.096Z,3.90
2022-11-24T19:26:19.504Z,3.83
2022-11-24T19:28:47.245Z,3.81
2022-11-24T19:31:17.171Z,3.72
2022-11-24T19:33:45.399Z,3.69
2022-11-24T19:36:15.742Z,3.61
2022-11-24T19:38:44.484Z,3.54
2022-11-24T19:41:15.444Z,3.45
2022-11-24T19:43:43.583Z,3.38
2022-11-24T19:46:13.402Z,3.38
2022-11-24T19:48:43.864Z,3.31
2022-11-24T19:51:14.023Z,3.32
2022-11-24T19:53:43.141Z,3.27
2022-11-24T19:56:13.775Z,3.23
2022-11-24T19:58:42.376Z,3.20
2022-11-24T20:01:12.475Z,3.19
2022-11-24T20:03:41.665Z,3.12
2022-11-24T20:06:11.395Z,3.09
2022-11-24T20:08:40.683Z,3.11
2022-11-24T20:11:10.650Z,3.11
2022-11-24T20:13:41.961Z,3.15
2022-11-24T20:16:11.731Z,3.15
2022-11-24T20:18:42.233Z,3.14
2022-11-24T20:21:13.416Z,3.10
2022-11-24T20:23:42.256Z,3.11
2022-11-24T20:26:12.771Z,3.18
2022-11-24T20:28:42.515Z,3.12
2022-11-24T20:31:13.175Z,3.06
2022-11-24T20:33:41.443Z,2.99
2022-11-24T20:36:11.807Z,3.01
2022-11-24T20:38:40.549Z,3.04
2022-11-24T20:41:09.759Z,3.01
2022-11-24T20:43:37.999Z,3.00
2022-11-24T20:46:10.001Z,2.92
2022-11-24T20:48:38.403Z,2.91
2022-11-24T20:51:07.246Z,2.94
2022-11-24T20:53:35.832Z,2.94
2022-11-24T20:56:06.429Z,2.92
2022-11-24T20:58:35.607Z,2.85
2022-11-24T21:01:09.538Z,2.78
2022-11-24T21:03:42.860Z,2.78
2022-11-24T21:06:12.527Z,2.78
2022-11-24T21:08:42.494Z,2.76
2022-11-24T21:11:12.734Z,2.70
2022-11-24T21:13:42.710Z,2.71
2022-11-24T21:16:16.579Z,2.74
2022-11-24T21:18:45.617Z,2.76
2022-11-24T21:21:13.996Z,2.80
2022-11-24T21:23:41.998Z,2.83
2022-11-24T21:26:16.340Z,2.76
2022-11-24T21:28:45.617Z,2.72
2022-11-24T21:31:17.043Z,2.62
2022-11-24T21:33:46.629Z,2.62
2022-11-24T21:36:15.616Z,2.66
2022-11-24T21:38:43.782Z,2.58
2022-11-24T21:41:13.943Z,2.51
2022-11-24T21:43:41.873Z,2.43
2022-11-24T21:46:11.598Z,2.34
2022-11-24T21:48:41.755Z,2.32
2022-11-24T21:51:13.089Z,2.30
2022-11-24T21:53:41.103Z,2.31
2022-11-24T21:56:12.827Z,2.23
2022-11-24T21:58:45.617Z,2.18
2022-11-24T22:01:14.014Z,2.18
2022-11-24T22:03:43.187Z,2.07
2022-11-24T22:06:11.342Z,2.06
2022-11-24T22:08:39.480Z,2.03
2022-11-24T22:11:09.494Z,2.05
2022-11-24T22:13:37.227Z,2.12
2022-11-24T22:16:07.132Z,2.15
2022-11-24T22:18:36.566Z,2.16
2022-11-24T22:21:07.866Z,2.15
2022-11-24T22:23:36.938Z,2.14
2022-11-24T22:26:05.853Z,2.16
2022-11-24T22:28:34.090Z,2.12
2022-11-24T22:31:05.743Z,2.15
2022-11-24T22:33:33.713Z,2.14
2022-11-24T22:36:02.540Z,2.15
2022-11-24T22:38:32.707Z,2.15
2022-11-24T22:41:03.858Z,2.17
2022-11-24T22:43:33.463Z,2.19
2022-11-24T22:46:05.993Z,2.20
2022-11-24T22:48:34.408Z,2.19
2022-11-24T22:51:03.583Z,2.14
2022-11-24T22:53:33.153Z,2.11
2022-11-24T22:56:05.697Z,2.13
2022-11-24T22:58:34.417Z,2.05
2022-11-24T23:01:06.526Z,2.04
2022-11-24T23:03:35.441Z,2.07
2022-11-24T23:06:03.868Z,2.03
2022-11-24T23:08:33.919Z,2.04
2022-11-24T23:11:02.760Z,2.04
2022-11-24T23:13:31.236Z,2.02
2022-11-24T23:16:02.849Z,1.95
2022-11-24T23:18:30.974Z,1.95
2022-11-24T23:21:04.761Z,1.80
2022-11-24T23:23:34.730Z,1.74
2022-11-24T23:26:02.863Z,1.72
2022-11-24T23:28:30.972Z,1.66
2022-11-24T23:31:01.686Z,1.63
2022-11-24T23:33:29.676Z,1.64
2022-11-24T23:35:57.525Z,1.70
2022-11-24T23:38:28.563Z,1.64
2022-11-24T23:40:58.200Z,1.67
2022-11-24T23:43:26.046Z,1.65
2022-11-24T23:45:54.079Z,1.59
2022-11-24T23:48:21.917Z,1.55
2022-11-24T23:50:49.709Z,1.52
2022-11-24T23:53:17.528Z,1.47
2022-11-24T23:55:45.293Z,1.38
2022-11-24T23:58:14.420Z,1.43
